createdAt,value
2017-10-03T00:00:37.079Z,18.73
2017-10-03T00:01:17.660Z,18.72
2017-10-03T00:01:58.250Z,18.76
2017-10-03T00:02:38.820Z,18.66
2017-10-03T00:03:19.388Z,18.62
2017-10-03T00:03:59.955Z,18.55
2017-10-03T00:04:40.522Z,18.6
2017-10-03T00:05:21.081Z,18.63
2017-10-03T00:06:01.643Z,18.75
2017-10-03T00:06:42.205Z,18.66
2017-10-03T00:07:22.796Z,18.72
2017-10-03T00:08:03.373Z,18.73
2017-10-03T00:08:43.945Z,18.62
2017-10-03T00:09:24.534Z,18.65
2017-10-03T00:10:05.093Z,18.58
2017-10-03T00:10:45.675Z,18.66
2017-10-03T00:11:26.234Z,18.63
2017-10-03T00:12:06.806Z,18.67
2017-10-03T00:12:47.387Z,18.69
2017-10-03T00:13:27.950Z,18.76
2017-10-03T00:14:08.523Z,18.72
2017-10-03T00:14:49.102Z,18.72
2017-10-03T00:15:29.671Z,18.6
2017-10-03T00:16:10.207Z,18.58
2017-10-03T00:16:50.750Z,18.7
2017-10-03T00:17:31.310Z,18.63
2017-10-03T00:18:11.891Z,18.75
2017-10-03T00:18:52.443Z,18.65
2017-10-03T00:19:33.014Z,18.75
2017-10-03T00:20:13.575Z,18.69
2017-10-03T00:20:54.153Z,18.7
2017-10-03T00:21:34.720Z,18.72
2017-10-03T00:22:15.303Z,18.7
2017-10-03T00:22:55.880Z,18.69
2017-10-03T00:23:36.447Z,18.66
2017-10-03T00:24:17.018Z,18.66
2017-10-03T00:24:57.596Z,18.55
2017-10-03T00:25:38.129Z,18.63
2017-10-03T00:26:18.682Z,18.63
2017-10-03T00:26:59.226Z,18.62
2017-10-03T00:27:39.793Z,18.66
2017-10-03T00:28:20.351Z,18.6
2017-10-03T00:29:00.897Z,18.63
2017-10-03T00:29:41.467Z,18.52
2017-10-03T00:30:22.020Z,18.63
2017-10-03T00:31:02.587Z,18.55
2017-10-03T00:31:43.164Z,18.65
2017-10-03T00:32:23.734Z,18.6
2017-10-03T00:33:04.305Z,18.55
2017-10-03T00:33:44.880Z,18.63
2017-10-03T00:34:25.440Z,18.54
2017-10-03T00:35:06.006Z,18.57
2017-10-03T00:35:46.601Z,18.63
2017-10-03T00:36:27.170Z,18.6
2017-10-03T00:37:07.722Z,18.65
2017-10-03T00:37:48.279Z,18.58
2017-10-03T00:38:28.846Z,18.51
2017-10-03T00:39:09.447Z,18.57
2017-10-03T00:39:50.045Z,18.6
2017-10-03T00:40:30.600Z,18.66
2017-10-03T00:41:11.184Z,18.62
2017-10-03T00:41:51.756Z,18.6
2017-10-03T00:42:32.318Z,18.63
2017-10-03T00:43:12.894Z,18.6
2017-10-03T00:43:53.456Z,18.6
2017-10-03T00:44:34.033Z,18.63
2017-10-03T00:45:14.612Z,18.6
2017-10-03T00:45:55.162Z,18.65
2017-10-03T00:46:35.751Z,18.66
2017-10-03T00:47:16.322Z,18.65
2017-10-03T00:47:56.906Z,18.67
2017-10-03T00:48:37.468Z,18.58
2017-10-03T00:49:18.022Z,18.6
2017-10-03T00:49:58.589Z,18.63
2017-10-03T00:50:39.160Z,18.69
2017-10-03T00:51:19.708Z,18.67
2017-10-03T00:52:00.275Z,18.58
2017-10-03T00:52:40.829Z,18.65
2017-10-03T00:53:21.379Z,18.75
2017-10-03T00:54:01.931Z,18.67
2017-10-03T00:54:42.494Z,18.75
2017-10-03T00:55:23.039Z,18.67
2017-10-03T00:56:03.611Z,18.69
2017-10-03T00:56:44.193Z,18.69
2017-10-03T00:57:24.760Z,18.73
2017-10-03T00:58:05.320Z,18.84
2017-10-03T00:58:45.882Z,18.73
2017-10-03T00:59:26.472Z,18.72
2017-10-03T01:00:07.028Z,18.76
2017-10-03T01:00:47.597Z,18.73
2017-10-03T01:01:28.176Z,18.7
2017-10-03T01:02:08.747Z,18.78
2017-10-03T01:02:49.317Z,18.75
2017-10-03T01:03:29.889Z,18.76
2017-10-03T01:04:10.475Z,18.84
2017-10-03T01:04:51.043Z,18.73
2017-10-03T01:05:31.613Z,18.75
2017-10-03T01:06:12.175Z,18.73
2017-10-03T01:06:52.753Z,18.75
2017-10-03T01:07:33.328Z,18.73
2017-10-03T01:08:13.910Z,18.76
2017-10-03T01:08:54.449Z,18.73
2017-10-03T01:09:35.007Z,18.76
2017-10-03T01:10:15.582Z,18.72
2017-10-03T01:10:56.137Z,18.72
2017-10-03T01:11:36.691Z,18.72
2017-10-03T01:12:17.248Z,18.67
2017-10-03T01:12:57.832Z,18.73
2017-10-03T01:13:38.396Z,18.69
2017-10-03T01:14:18.983Z,18.69
2017-10-03T01:14:59.539Z,18.72
2017-10-03T01:15:40.098Z,18.72
2017-10-03T01:16:20.650Z,18.7
2017-10-03T01:17:01.235Z,18.7
2017-10-03T01:17:41.805Z,18.72
2017-10-03T01:18:22.382Z,18.73
2017-10-03T01:19:02.966Z,18.78
2017-10-03T01:19:43.517Z,18.87
2017-10-03T01:20:24.078Z,18.85
2017-10-03T01:21:04.648Z,18.84
2017-10-03T01:21:45.217Z,18.81
2017-10-03T01:22:25.789Z,18.91
2017-10-03T01:23:06.365Z,18.87
2017-10-03T01:23:46.901Z,18.9
2017-10-03T01:24:27.481Z,18.85
2017-10-03T01:25:08.111Z,18.82
2017-10-03T01:25:48.659Z,18.84
2017-10-03T01:26:29.225Z,18.85
2017-10-03T01:27:09.786Z,18.87
2017-10-03T01:27:50.332Z,18.82
2017-10-03T01:28:30.885Z,18.76
2017-10-03T01:29:11.452Z,18.7
2017-10-03T01:29:52.016Z,18.78
2017-10-03T01:30:32.586Z,18.75
2017-10-03T01:31:13.147Z,18.67
2017-10-03T01:31:53.712Z,18.76
2017-10-03T01:32:34.271Z,18.76
2017-10-03T01:33:14.836Z,18.69
2017-10-03T01:33:55.393Z,18.78
2017-10-03T01:34:35.963Z,18.76
2017-10-03T01:35:16.527Z,18.73
2017-10-03T01:35:57.094Z,18.73
2017-10-03T01:36:37.637Z,18.78
2017-10-03T01:37:18.202Z,18.75
2017-10-03T01:37:58.775Z,18.85
2017-10-03T01:38:39.347Z,18.76
2017-10-03T01:39:19.912Z,18.84
2017-10-03T01:40:00.482Z,18.84
2017-10-03T01:40:41.046Z,18.87
2017-10-03T01:41:21.608Z,18.92
2017-10-03T01:42:02.172Z,18.94
2017-10-03T01:42:42.741Z,18.92
2017-10-03T01:43:23.308Z,18.98
2017-10-03T01:44:03.890Z,18.94
2017-10-03T01:44:44.441Z,18.94
2017-10-03T01:45:25.021Z,18.95
2017-10-03T01:46:05.587Z,18.94
2017-10-03T01:46:46.150Z,18.99
2017-10-03T01:47:26.721Z,18.95
2017-10-03T01:48:07.307Z,18.98
2017-10-03T01:48:47.866Z,18.92
2017-10-03T01:49:28.428Z,18.9
2017-10-03T01:50:08.999Z,18.92
2017-10-03T01:50:49.585Z,18.95
2017-10-03T01:51:30.147Z,18.9
2017-10-03T01:52:10.730Z,18.82
2017-10-03T01:52:51.276Z,18.87
2017-10-03T01:53:31.832Z,18.91
2017-10-03T01:54:12.401Z,18.8
2017-10-03T01:54:52.965Z,18.9
2017-10-03T01:55:33.531Z,18.92
2017-10-03T01:56:14.101Z,18.99
2017-10-03T01:56:54.654Z,19.02
2017-10-03T01:57:35.230Z,19.06
2017-10-03T01:58:15.791Z,19.08
2017-10-03T01:58:56.367Z,19.04
2017-10-03T01:59:36.931Z,18.99
2017-10-03T02:00:17.500Z,19.02
2017-10-03T02:00:58.071Z,19.02
2017-10-03T02:01:38.654Z,19.02
2017-10-03T02:02:19.219Z,18.98
2017-10-03T02:02:59.776Z,19
2017-10-03T02:03:40.351Z,18.98
2017-10-03T02:04:20.902Z,19.04
2017-10-03T02:05:01.484Z,18.95
2017-10-03T02:05:42.063Z,18.95
2017-10-03T02:06:22.650Z,19.06
2017-10-03T02:07:03.205Z,19.02
2017-10-03T02:07:43.777Z,19.08
2017-10-03T02:08:24.336Z,19.02
2017-10-03T02:09:04.887Z,19.11
2017-10-03T02:09:45.460Z,19.08
2017-10-03T02:10:26.015Z,19.02
2017-10-03T02:11:06.570Z,19.04
2017-10-03T02:11:47.130Z,19
2017-10-03T02:12:27.692Z,19.11
2017-10-03T02:13:08.250Z,19.06
2017-10-03T02:13:48.792Z,19.02
2017-10-03T02:14:29.370Z,19
2017-10-03T02:15:09.933Z,19.04
2017-10-03T02:15:50.498Z,19.08
2017-10-03T02:16:31.059Z,19.06
2017-10-03T02:17:11.628Z,19.04
2017-10-03T02:17:52.180Z,19.04
2017-10-03T02:18:32.751Z,19.06
2017-10-03T02:19:13.320Z,19.06
2017-10-03T02:19:53.890Z,19.04
2017-10-03T02:20:34.455Z,19.02
2017-10-03T02:21:15.003Z,18.95
2017-10-03T02:21:55.551Z,18.99
2017-10-03T02:22:36.132Z,19.04
2017-10-03T02:23:16.710Z,18.99
2017-10-03T02:23:57.259Z,19.04
2017-10-03T02:24:37.828Z,19.08
2017-10-03T02:25:18.369Z,19.16
2017-10-03T02:25:58.929Z,19.08
2017-10-03T02:26:39.486Z,19.02
2017-10-03T02:27:20.041Z,19.08
2017-10-03T02:28:00.608Z,19.02
2017-10-03T02:28:41.169Z,19.08
2017-10-03T02:29:21.720Z,19.1
2017-10-03T02:30:02.295Z,19.06
2017-10-03T02:30:42.861Z,19.02
2017-10-03T02:31:23.427Z,19.13
2017-10-03T02:32:03.988Z,19.1
2017-10-03T02:32:44.543Z,19.04
2017-10-03T02:33:25.109Z,18.99
2017-10-03T02:34:05.681Z,19.07
2017-10-03T02:34:46.243Z,19.04
2017-10-03T02:35:26.825Z,19
2017-10-03T02:36:07.420Z,19.06
2017-10-03T02:36:47.992Z,19.02
2017-10-03T02:37:28.568Z,19.07
2017-10-03T02:38:09.147Z,19.02
2017-10-03T02:38:49.712Z,19.08
2017-10-03T02:39:30.284Z,19.13
2017-10-03T02:40:10.841Z,19.04
2017-10-03T02:40:51.432Z,19.07
2017-10-03T02:41:31.997Z,19.08
2017-10-03T02:42:12.569Z,19.13
2017-10-03T02:42:53.136Z,19.08
2017-10-03T02:43:33.697Z,19.06
2017-10-03T02:44:14.263Z,19.19
2017-10-03T02:44:54.823Z,19.14
2017-10-03T02:45:35.386Z,19.1
2017-10-03T02:46:15.954Z,19.11
2017-10-03T02:46:56.528Z,19.11
2017-10-03T02:47:37.087Z,19.19
2017-10-03T02:48:17.651Z,19.21
2017-10-03T02:48:58.220Z,19.22
2017-10-03T02:49:38.785Z,19.18
2017-10-03T02:50:19.361Z,19.26
2017-10-03T02:50:59.924Z,19.18
2017-10-03T02:51:40.491Z,19.18
2017-10-03T02:52:21.054Z,19.18
2017-10-03T02:53:01.612Z,19.14
2017-10-03T02:53:42.172Z,19.1
2017-10-03T02:54:22.727Z,19
2017-10-03T02:55:03.303Z,18.84
2017-10-03T02:55:43.865Z,18.42
2017-10-03T02:56:24.440Z,18.32
2017-10-03T02:57:05.025Z,18.36
2017-10-03T02:57:45.598Z,18.27
2017-10-03T02:58:26.163Z,18.29
2017-10-03T02:59:06.727Z,18.29
2017-10-03T02:59:47.290Z,18.25
2017-10-03T03:00:27.865Z,18.05
2017-10-03T03:01:08.426Z,17.93
2017-10-03T03:01:49.005Z,17.96
2017-10-03T03:02:29.565Z,17.92
2017-10-03T03:03:10.129Z,17.75
2017-10-03T03:03:50.686Z,17.77
2017-10-03T03:04:31.244Z,17.68
2017-10-03T03:05:11.815Z,17.72
2017-10-03T03:05:52.394Z,17.74
2017-10-03T03:06:32.963Z,17.71
2017-10-03T03:07:13.528Z,17.56
2017-10-03T03:07:54.086Z,17.52
2017-10-03T03:08:34.649Z,17.52
2017-10-03T03:09:15.224Z,17.56
2017-10-03T03:09:55.802Z,17.68
2017-10-03T03:10:36.381Z,17.68
2017-10-03T03:11:16.936Z,17.55
2017-10-03T03:11:57.503Z,17.56
2017-10-03T03:12:38.069Z,17.55
2017-10-03T03:13:18.631Z,17.48
2017-10-03T03:13:59.189Z,17.46
2017-10-03T03:14:39.755Z,17.52
2017-10-03T03:15:20.337Z,17.36
2017-10-03T03:16:00.894Z,17.49
2017-10-03T03:16:41.454Z,17.4
2017-10-03T03:17:22.018Z,17.54
2017-10-03T03:18:02.574Z,17.43
2017-10-03T03:18:43.124Z,17.43
2017-10-03T03:19:23.712Z,17.44
2017-10-03T03:20:04.292Z,17.48
2017-10-03T03:20:44.859Z,17.49
2017-10-03T03:21:25.414Z,17.46
2017-10-03T03:22:05.972Z,17.49
2017-10-03T03:22:46.530Z,17.54
2017-10-03T03:23:27.079Z,17.49
2017-10-03T03:24:07.629Z,17.51
2017-10-03T03:24:48.184Z,17.46
2017-10-03T03:25:29.622Z,17.49
2017-10-03T03:26:10.183Z,17.48
2017-10-03T03:26:50.737Z,17.4
2017-10-03T03:27:31.276Z,17.37
2017-10-03T03:28:11.833Z,17.41
2017-10-03T03:28:52.399Z,17.54
2017-10-03T03:29:32.939Z,17.56
2017-10-03T03:30:13.503Z,17.56
2017-10-03T03:30:54.047Z,17.49
2017-10-03T03:31:34.602Z,17.54
2017-10-03T03:32:15.155Z,17.44
2017-10-03T03:32:55.724Z,17.56
2017-10-03T03:33:36.288Z,17.44
2017-10-03T03:34:16.836Z,17.43
2017-10-03T03:34:57.402Z,17.44
2017-10-03T03:35:37.994Z,17.54
2017-10-03T03:36:18.545Z,17.56
2017-10-03T03:36:59.094Z,17.55
2017-10-03T03:37:39.662Z,17.55
2017-10-03T03:38:20.222Z,17.41
2017-10-03T03:39:00.785Z,17.34
2017-10-03T03:39:41.354Z,17.38
2017-10-03T03:40:21.936Z,17.4
2017-10-03T03:41:02.505Z,17.21
2017-10-03T03:41:43.083Z,17.41
2017-10-03T03:42:23.661Z,17.44
2017-10-03T03:43:04.225Z,17.36
2017-10-03T03:43:44.803Z,17.44
2017-10-03T03:44:25.366Z,17.43
2017-10-03T03:45:05.921Z,17.49
2017-10-03T03:45:46.493Z,17.36
2017-10-03T03:46:27.047Z,17.38
2017-10-03T03:47:07.631Z,17.49
2017-10-03T03:47:48.194Z,17.41
2017-10-03T03:48:28.762Z,17.48
2017-10-03T03:49:09.326Z,17.49
2017-10-03T03:49:49.903Z,17.49
2017-10-03T03:50:30.466Z,17.48
2017-10-03T03:51:11.040Z,17.58
2017-10-03T03:51:51.611Z,17.55
2017-10-03T03:52:32.185Z,17.52
2017-10-03T03:53:12.756Z,17.59
2017-10-03T03:53:53.347Z,17.55
2017-10-03T03:54:33.908Z,17.63
2017-10-03T03:55:14.480Z,17.56
2017-10-03T03:55:55.039Z,17.51
2017-10-03T03:56:35.612Z,17.49
2017-10-03T03:57:16.156Z,17.48
2017-10-03T03:57:56.726Z,17.38
2017-10-03T03:58:37.285Z,17.38
2017-10-03T03:59:17.859Z,17.43
2017-10-03T03:59:58.448Z,17.46
2017-10-03T04:00:39.009Z,17.49
2017-10-03T04:01:19.584Z,17.49
2017-10-03T04:02:00.157Z,17.55
2017-10-03T04:02:40.722Z,17.59
2017-10-03T04:03:21.292Z,17.58
2017-10-03T04:04:01.855Z,17.55
2017-10-03T04:04:42.505Z,17.58
2017-10-03T04:05:23.077Z,17.59
2017-10-03T04:06:03.642Z,17.56
2017-10-03T04:06:44.202Z,17.51
2017-10-03T04:07:24.781Z,17.48
2017-10-03T04:08:05.348Z,17.49
2017-10-03T04:08:45.932Z,17.41
2017-10-03T04:09:26.511Z,17.38
2017-10-03T04:10:07.076Z,17.44
2017-10-03T04:10:47.653Z,17.46
2017-10-03T04:11:28.229Z,17.51
2017-10-03T04:12:08.800Z,17.46
2017-10-03T04:12:49.361Z,17.52
2017-10-03T04:13:29.929Z,17.48
2017-10-03T04:14:10.490Z,17.43
2017-10-03T04:14:51.049Z,17.48
2017-10-03T04:15:31.615Z,17.41
2017-10-03T04:16:12.173Z,17.44
2017-10-03T04:16:52.722Z,17.46
2017-10-03T04:17:33.283Z,17.41
2017-10-03T04:18:13.855Z,17.4
2017-10-03T04:18:54.426Z,17.52
2017-10-03T04:19:34.988Z,17.46
2017-10-03T04:20:15.558Z,17.59
2017-10-03T04:20:56.128Z,17.54
2017-10-03T04:21:36.688Z,17.62
2017-10-03T04:22:17.249Z,17.63
2017-10-03T04:22:57.826Z,17.66
2017-10-03T04:23:38.389Z,17.66
2017-10-03T04:24:18.958Z,17.68
2017-10-03T04:24:59.538Z,17.72
2017-10-03T04:25:40.111Z,17.75
2017-10-03T04:26:20.672Z,17.71
2017-10-03T04:27:01.228Z,17.64
2017-10-03T04:27:41.796Z,17.59
2017-10-03T04:28:22.384Z,17.63
2017-10-03T04:29:02.928Z,17.54
2017-10-03T04:29:43.486Z,17.62
2017-10-03T04:30:24.048Z,17.62
2017-10-03T04:31:04.612Z,17.66
2017-10-03T04:31:45.188Z,17.75
2017-10-03T04:32:25.768Z,17.68
2017-10-03T04:33:06.328Z,17.55
2017-10-03T04:33:46.889Z,17.52
2017-10-03T04:34:27.451Z,17.51
2017-10-03T04:35:08.010Z,17.59
2017-10-03T04:35:48.573Z,17.59
2017-10-03T04:36:29.135Z,17.64
2017-10-03T04:37:09.693Z,17.64
2017-10-03T04:37:50.227Z,17.71
2017-10-03T04:38:30.804Z,17.75
2017-10-03T04:39:11.387Z,17.72
2017-10-03T04:39:51.961Z,17.77
2017-10-03T04:40:32.552Z,17.79
2017-10-03T04:41:13.126Z,17.72
2017-10-03T04:41:53.698Z,17.71
2017-10-03T04:42:34.253Z,17.77
2017-10-03T04:43:14.828Z,17.74
2017-10-03T04:43:55.392Z,17.75
2017-10-03T04:44:35.947Z,17.89
2017-10-03T04:45:16.502Z,17.71
2017-10-03T04:45:57.055Z,17.62
2017-10-03T04:46:37.623Z,17.7
2017-10-03T04:47:18.159Z,17.78
2017-10-03T04:47:58.734Z,17.81
2017-10-03T04:48:39.297Z,17.71
2017-10-03T04:49:19.864Z,17.72
2017-10-03T04:50:00.418Z,17.77
2017-10-03T04:50:40.988Z,17.78
2017-10-03T04:51:21.542Z,17.71
2017-10-03T04:52:02.105Z,17.74
2017-10-03T04:52:42.693Z,17.79
2017-10-03T04:53:23.259Z,17.7
2017-10-03T04:54:03.833Z,17.87
2017-10-03T04:54:44.401Z,17.58
2017-10-03T04:55:24.965Z,17.74
2017-10-03T04:56:05.541Z,17.66
2017-10-03T04:56:46.115Z,17.72
2017-10-03T04:57:26.691Z,17.75
2017-10-03T04:58:07.251Z,17.75
2017-10-03T04:58:47.804Z,17.75
2017-10-03T04:59:28.376Z,17.81
2017-10-03T05:00:08.926Z,17.86
2017-10-03T05:00:49.481Z,17.75
2017-10-03T05:01:30.054Z,17.78
2017-10-03T05:02:10.628Z,17.84
2017-10-03T05:02:51.219Z,17.86
2017-10-03T05:03:31.764Z,17.77
2017-10-03T05:04:12.399Z,17.86
2017-10-03T05:04:52.982Z,17.74
2017-10-03T05:05:33.533Z,17.82
2017-10-03T05:06:14.102Z,17.74
2017-10-03T05:06:54.664Z,17.72
2017-10-03T05:07:35.228Z,17.79
2017-10-03T05:08:15.787Z,17.75
2017-10-03T05:08:56.350Z,17.81
2017-10-03T05:09:36.933Z,17.82
2017-10-03T05:10:17.486Z,17.77
2017-10-03T05:10:58.060Z,17.78
2017-10-03T05:11:38.615Z,17.74
2017-10-03T05:12:19.211Z,17.77
2017-10-03T05:12:59.781Z,17.74
2017-10-03T05:13:41.599Z,17.84
2017-10-03T05:14:22.158Z,17.82
2017-10-03T05:15:02.726Z,17.78
2017-10-03T05:15:43.733Z,17.78
2017-10-03T05:16:24.294Z,17.75
2017-10-03T05:17:04.857Z,17.75
2017-10-03T05:17:45.417Z,17.77
2017-10-03T05:18:25.993Z,17.72
2017-10-03T05:19:06.569Z,17.92
2017-10-03T05:19:47.107Z,17.9
2017-10-03T05:20:27.688Z,17.86
2017-10-03T05:21:08.242Z,17.93
2017-10-03T05:21:48.808Z,17.82
2017-10-03T05:22:29.399Z,17.9
2017-10-03T05:23:09.974Z,17.92
2017-10-03T05:23:50.572Z,17.87
2017-10-03T05:24:31.155Z,17.78
2017-10-03T05:25:11.697Z,17.81
2017-10-03T05:25:52.322Z,17.92
2017-10-03T05:26:32.875Z,17.9
2017-10-03T05:27:13.473Z,17.75
2017-10-03T05:27:54.021Z,17.92
2017-10-03T05:28:34.583Z,17.77
2017-10-03T05:29:15.146Z,17.75
2017-10-03T05:29:55.720Z,17.62
2017-10-03T05:30:36.321Z,17.62
2017-10-03T05:31:16.880Z,17.56
2017-10-03T05:31:57.442Z,17.62
2017-10-03T05:32:37.998Z,17.66
2017-10-03T05:33:18.566Z,17.7
2017-10-03T05:33:59.131Z,17.72
2017-10-03T05:34:39.699Z,17.79
2017-10-03T05:35:20.292Z,17.71
2017-10-03T05:36:01.076Z,17.75
2017-10-03T05:36:41.411Z,17.77
2017-10-03T05:37:21.971Z,17.7
2017-10-03T05:38:02.553Z,17.79
2017-10-03T05:38:43.142Z,17.71
2017-10-03T05:39:23.696Z,17.79
2017-10-03T05:40:04.262Z,17.87
2017-10-03T05:40:44.825Z,17.87
2017-10-03T05:41:25.573Z,17.75
2017-10-03T05:42:06.144Z,17.84
2017-10-03T05:42:46.716Z,17.74
2017-10-03T05:43:27.284Z,17.84
2017-10-03T05:44:07.845Z,17.82
2017-10-03T05:44:48.433Z,17.93
2017-10-03T05:45:28.999Z,17.9
2017-10-03T05:46:09.578Z,17.9
2017-10-03T05:46:50.153Z,17.89
2017-10-03T05:47:30.714Z,17.79
2017-10-03T05:48:11.285Z,17.78
2017-10-03T05:48:51.854Z,17.78
2017-10-03T05:49:32.421Z,17.71
2017-10-03T05:50:12.994Z,17.77
2017-10-03T05:50:53.577Z,17.63
2017-10-03T05:51:34.109Z,17.62
2017-10-03T05:52:14.671Z,17.59
2017-10-03T05:52:55.232Z,17.72
2017-10-03T05:53:35.798Z,17.72
2017-10-03T05:54:16.363Z,17.66
2017-10-03T05:54:56.951Z,17.58
2017-10-03T05:55:37.553Z,17.56
2017-10-03T05:56:18.118Z,17.52
2017-10-03T05:56:58.696Z,17.52
2017-10-03T05:57:39.256Z,17.49
2017-10-03T05:58:19.822Z,17.48
2017-10-03T05:59:00.391Z,17.51
2017-10-03T05:59:40.960Z,17.54
2017-10-03T06:00:21.528Z,17.63
2017-10-03T06:01:02.099Z,17.52
2017-10-03T06:01:42.672Z,17.41
2017-10-03T06:02:23.245Z,17.46
2017-10-03T06:03:03.816Z,17.55
2017-10-03T06:03:44.399Z,17.52
2017-10-03T06:04:24.960Z,17.56
2017-10-03T06:05:05.516Z,17.48
2017-10-03T06:05:46.109Z,17.54
2017-10-03T06:06:26.637Z,17.56
2017-10-03T06:07:07.202Z,17.55
2017-10-03T06:07:47.828Z,17.55
2017-10-03T06:08:28.390Z,17.54
2017-10-03T06:09:08.962Z,17.64
2017-10-03T06:09:49.525Z,17.58
2017-10-03T06:10:30.096Z,17.66
2017-10-03T06:11:10.810Z,17.64
2017-10-03T06:11:51.371Z,17.68
2017-10-03T06:12:31.967Z,17.56
2017-10-03T06:13:12.507Z,17.59
2017-10-03T06:13:53.045Z,17.63
2017-10-03T06:14:33.614Z,17.62
2017-10-03T06:15:14.146Z,17.68
2017-10-03T06:15:54.722Z,17.72
2017-10-03T06:16:35.261Z,17.7
2017-10-03T06:17:15.801Z,17.7
2017-10-03T06:17:56.374Z,17.77
2017-10-03T06:18:36.962Z,17.72
2017-10-03T06:19:17.490Z,17.74
2017-10-03T06:19:58.029Z,17.74
2017-10-03T06:20:38.573Z,17.81
2017-10-03T06:21:19.125Z,17.74
2017-10-03T06:21:59.679Z,17.86
2017-10-03T06:22:40.211Z,17.75
2017-10-03T06:23:20.724Z,17.75
2017-10-03T06:24:01.290Z,17.78
2017-10-03T06:24:41.813Z,17.79
2017-10-03T06:25:22.354Z,17.75
2017-10-03T06:26:02.892Z,17.79
2017-10-03T06:26:43.463Z,17.71
2017-10-03T06:27:24.004Z,17.75
2017-10-03T06:28:04.554Z,17.79
2017-10-03T06:28:45.069Z,17.78
2017-10-03T06:29:25.639Z,17.72
2017-10-03T06:30:06.216Z,17.81
2017-10-03T06:30:46.773Z,17.74
2017-10-03T06:31:27.344Z,17.75
2017-10-03T06:32:07.846Z,17.79
2017-10-03T06:32:48.392Z,17.79
2017-10-03T06:33:28.961Z,17.77
2017-10-03T06:34:10.889Z,17.71
2017-10-03T06:34:51.448Z,17.71
2017-10-03T06:35:31.988Z,17.79
2017-10-03T06:36:12.524Z,17.75
2017-10-03T06:36:53.080Z,17.86
2017-10-03T06:37:33.624Z,17.78
2017-10-03T06:38:14.188Z,17.89
2017-10-03T06:38:54.713Z,17.78
2017-10-03T06:39:35.239Z,17.81
2017-10-03T06:40:15.792Z,17.74
2017-10-03T06:40:56.366Z,17.74
2017-10-03T06:41:36.928Z,17.68
2017-10-03T06:42:17.452Z,17.72
2017-10-03T06:42:58.090Z,17.72
2017-10-03T06:43:39.068Z,17.74
2017-10-03T06:44:19.943Z,17.75
2017-10-03T06:45:00.518Z,17.82
2017-10-03T06:45:41.033Z,17.78
2017-10-03T06:46:21.574Z,17.81
2017-10-03T06:47:02.122Z,17.89
2017-10-03T06:47:42.627Z,17.89
2017-10-03T06:48:23.135Z,17.89
2017-10-03T06:49:03.698Z,17.82
2017-10-03T06:49:44.266Z,17.9
2017-10-03T06:50:24.817Z,17.84
2017-10-03T06:51:05.350Z,17.93
2017-10-03T06:51:45.848Z,17.89
2017-10-03T06:52:26.391Z,17.86
2017-10-03T06:53:08.272Z,17.82
2017-10-03T06:53:47.764Z,17.92
2017-10-03T06:54:28.234Z,17.92
2017-10-03T06:55:08.776Z,18.02
2017-10-03T06:55:49.282Z,18.03
2017-10-03T06:56:29.817Z,18.02
2017-10-03T06:57:10.930Z,17.97
2017-10-03T06:57:51.487Z,17.97
2017-10-03T06:58:35.201Z,18
2017-10-03T06:59:15.767Z,18.07
2017-10-03T06:59:56.316Z,18.03
2017-10-03T07:00:36.866Z,18.12
2017-10-03T07:01:17.419Z,18.17
2017-10-03T07:01:57.981Z,18.21
2017-10-03T07:02:38.912Z,18.2
2017-10-03T07:03:19.540Z,18.2
2017-10-03T07:04:00.104Z,18.26
2017-10-03T07:04:41.107Z,18.3
2017-10-03T07:05:21.681Z,18.37
2017-10-03T07:06:02.227Z,18.36
2017-10-03T07:06:42.720Z,18.36
2017-10-03T07:07:23.266Z,18.37
2017-10-03T07:08:03.794Z,18.37
2017-10-03T07:08:44.341Z,18.33
2017-10-03T07:09:24.879Z,18.3
2017-10-03T07:10:05.436Z,18.29
2017-10-03T07:10:46.022Z,18.26
2017-10-03T07:11:26.895Z,18.3
2017-10-03T07:13:04.784Z,18.29
2017-10-03T07:13:45.307Z,18.29
2017-10-03T07:14:25.844Z,18.25
2017-10-03T07:15:06.410Z,18.27
2017-10-03T07:15:47.052Z,18.27
2017-10-03T07:16:27.596Z,18.3
2017-10-03T07:17:08.112Z,18.29
2017-10-03T07:17:48.733Z,18.26
2017-10-03T07:18:29.247Z,18.2
2017-10-03T07:19:09.791Z,18.2
2017-10-03T07:19:50.319Z,18.08
2017-10-03T07:20:30.848Z,17.93
2017-10-03T07:21:11.383Z,18.03
2017-10-03T07:21:51.940Z,17.97
2017-10-03T07:22:32.484Z,18.07
2017-10-03T07:23:13.047Z,18.07
2017-10-03T07:23:53.718Z,18.11
2017-10-03T07:24:34.318Z,18.11
2017-10-03T07:25:14.818Z,18.11
2017-10-03T07:25:55.437Z,18.25
2017-10-03T07:26:35.984Z,18.25
2017-10-03T07:27:16.486Z,18.26
2017-10-03T07:27:57.364Z,18.25
2017-10-03T07:28:37.895Z,18.27
2017-10-03T07:29:18.429Z,18.3
2017-10-03T07:29:58.978Z,18.35
2017-10-03T07:30:39.527Z,18.27
2017-10-03T07:31:20.060Z,18.45
2017-10-03T07:32:00.569Z,18.44
2017-10-03T07:32:41.111Z,18.42
2017-10-03T07:33:21.836Z,18.29
2017-10-03T07:34:02.380Z,18.3
2017-10-03T07:34:42.926Z,18.33
2017-10-03T07:35:23.518Z,18.35
2017-10-03T07:36:04.002Z,18.37
2017-10-03T07:36:44.527Z,18.39
2017-10-03T07:37:25.066Z,18.3
2017-10-03T07:38:05.814Z,18.35
2017-10-03T07:38:46.356Z,18.33
2017-10-03T07:39:27.025Z,18.35
2017-10-03T07:40:07.480Z,18.32
2017-10-03T07:40:48.028Z,18.32
2017-10-03T07:41:28.827Z,18.44
2017-10-03T07:42:09.540Z,18.42
2017-10-03T07:42:50.048Z,18.47
2017-10-03T07:43:31.401Z,18.41
2017-10-03T07:44:11.616Z,18.44
2017-10-03T07:44:52.156Z,18.44
2017-10-03T07:45:32.692Z,18.45
2017-10-03T07:46:13.271Z,18.47
2017-10-03T07:46:53.795Z,18.52
2017-10-03T07:47:34.363Z,18.47
2017-10-03T07:48:14.918Z,18.58
2017-10-03T07:48:55.466Z,18.65
2017-10-03T07:49:36.025Z,18.62
2017-10-03T07:50:16.716Z,18.58
2017-10-03T07:50:57.217Z,18.54
2017-10-03T07:51:37.763Z,18.58
2017-10-03T07:52:18.284Z,18.55
2017-10-03T07:52:58.839Z,18.54
2017-10-03T07:53:39.413Z,18.57
2017-10-03T07:54:19.911Z,18.55
2017-10-03T07:55:00.461Z,18.52
2017-10-03T07:55:41.039Z,18.52
2017-10-03T07:56:21.567Z,18.55
2017-10-03T07:57:02.496Z,18.52
2017-10-03T07:57:44.112Z,18.6
2017-10-03T07:58:24.794Z,18.52
2017-10-03T07:59:05.361Z,18.58
2017-10-03T07:59:47.764Z,18.57
2017-10-03T08:00:28.254Z,18.54
2017-10-03T08:01:08.808Z,18.52
2017-10-03T08:01:49.366Z,18.55
2017-10-03T08:02:29.876Z,18.58
2017-10-03T08:03:10.402Z,18.51
2017-10-03T08:03:51.073Z,18.55
2017-10-03T08:04:31.567Z,18.57
2017-10-03T08:05:12.114Z,18.52
2017-10-03T08:05:52.663Z,18.67
2017-10-03T08:06:33.214Z,18.6
2017-10-03T08:07:13.865Z,18.65
2017-10-03T08:07:54.468Z,18.58
2017-10-03T08:08:35.122Z,18.62
2017-10-03T08:09:15.735Z,18.62
2017-10-03T08:09:56.264Z,18.58
2017-10-03T08:10:36.836Z,18.57
2017-10-03T08:11:17.349Z,18.44
2017-10-03T08:11:57.890Z,18.41
2017-10-03T08:12:38.562Z,18.14
2017-10-03T08:13:19.049Z,18.07
2017-10-03T08:13:59.598Z,18.15
2017-10-03T08:14:40.180Z,18.26
2017-10-03T08:15:20.782Z,18.27
2017-10-03T08:16:03.310Z,18.26
2017-10-03T08:16:43.885Z,18.29
2017-10-03T08:17:24.585Z,18.27
2017-10-03T08:18:05.132Z,18.23
2017-10-03T08:18:45.696Z,18.2
2017-10-03T08:19:26.356Z,18.2
2017-10-03T08:20:06.897Z,18.07
2017-10-03T08:20:47.480Z,18.11
2017-10-03T08:21:27.987Z,18.08
2017-10-03T08:22:08.535Z,18.08
2017-10-03T08:22:49.118Z,18.11
2017-10-03T08:23:29.667Z,18.11
2017-10-03T08:24:10.175Z,18.17
2017-10-03T08:24:50.747Z,18.21
2017-10-03T08:25:31.214Z,18.2
2017-10-03T08:26:12.769Z,18.25
2017-10-03T08:26:53.266Z,18.23
2017-10-03T08:27:33.844Z,18.26
2017-10-03T08:28:14.437Z,18.3
2017-10-03T08:28:54.961Z,18.32
2017-10-03T08:29:35.653Z,18.35
2017-10-03T08:30:16.184Z,18.35
2017-10-03T08:30:56.699Z,18.44
2017-10-03T08:31:37.401Z,18.47
2017-10-03T08:32:18.445Z,18.45
2017-10-03T08:32:59.080Z,18.57
2017-10-03T08:33:39.617Z,18.6
2017-10-03T08:34:20.125Z,18.62
2017-10-03T08:35:00.717Z,18.73
2017-10-03T08:35:41.315Z,18.7
2017-10-03T08:36:21.951Z,18.8
2017-10-03T08:37:03.747Z,18.91
2017-10-03T08:37:44.004Z,19
2017-10-03T08:38:24.667Z,19.06
2017-10-03T08:39:05.119Z,18.99
2017-10-03T08:39:45.694Z,19.04
2017-10-03T08:40:26.304Z,18.99
2017-10-03T08:41:06.836Z,19.02
2017-10-03T08:41:47.413Z,19
2017-10-03T08:42:28.149Z,18.99
2017-10-03T08:43:08.665Z,19.04
2017-10-03T08:43:49.253Z,18.95
2017-10-03T08:44:29.860Z,18.99
2017-10-03T08:45:10.886Z,19.11
2017-10-03T08:45:50.966Z,19.07